Latest Weather Observations for Bendigo

IDV60801

Issued at 7:32 pm EST Wednesday 19 September 2018 (issued every 10 minutes, with the page automatically refreshed every 10 minutes)

About weather observations | Map of weather stations | Latest weather observations for VIC | Other Formats
Station Details ID: 081123 Name: BENDIGO AIRPORT Lat: -36.74 Lon: 144.33 Height: 209.17 m
Data from the previous 72 hours. | See also: Recent months at Bendigo
Date/Time
EST
Temp
°C
App
Temp
°C
Dew
Point
°C
Rel
Hum
%
Delta-T
°C
Wind Press
QNH
hPa
Press
MSL
hPa
Rain since
9am
mm
Dir  Spd
km/h
Gust
km/h
Spd
kts
Gust
kts
19/07:30pm 9.8 6.3 1.2 55 3.6 S 9 15 5 8 1016.4 1016.6 0.0
19/07:00pm 9.6 6.6 0.8 54 3.6 SSW 6 7 3 4 1015.8 1016.0 0.0
19/06:30pm 11.3 8.0 0.4 47 4.5 S 7 11 4 6 1015.6 1015.8 0.0
19/06:00pm 11.4 8.1 -0.1 45 4.7 SSW 7 11 4 6 1015.2 1015.4 0.0
19/05:30pm 12.6 8.0 -1.0 39 5.6 SSW 13 19 7 10 1014.8 1015.0 0.0
19/05:00pm 13.7 8.7 -1.1 36 6.1 SSW 15 22 8 12 1014.5 1014.6 0.0
19/04:30pm 12.9 7.5 -1.4 37 5.8 SSW 17 22 9 12 1014.2 1014.3 0.0
19/04:00pm 14.3 9.0 -0.5 36 6.2 SW 17 26 9 14 1014.2 1014.3 0.0
19/03:30pm 13.5 8.1 -1.3 36 6.1 SW 17 26 9 14 1014.2 1014.3 0.0
19/03:00pm 14.7 8.6 0.2 37 6.2 SW 22 30 12 16 1014.3 1014.4 0.0
19/02:30pm 13.7 9.0 0.7 41 5.6 SW 15 20 8 11 1014.2 1014.3 0.0
19/02:00pm 13.0 7.2 0.1 41 5.4 SW 20 32 11 17 1014.3 1014.4 0.0
19/01:30pm 14.5 8.5 1.1 40 5.8 WSW 22 30 12 16 1014.2 1014.3 0.0
19/01:00pm 13.4 7.7 2.6 48 4.8 W 22 33 12 18 1014.4 1014.5 0.0
19/12:30pm 12.4 7.9 2.3 50 4.4 SW 15 20 8 11 1014.5 1014.6 0.0
19/12:00pm 12.1 7.2 2.0 50 4.4 WSW 17 28 9 15 1014.7 1014.9 0.0
19/11:30am 11.6 6.4 2.4 53 4.0 SW 19 32 10 17 1014.6 1014.8 0.0
19/11:00am 11.4 6.1 3.2 57 3.6 WSW 20 32 11 17 1014.7 1014.9 0.0
19/10:30am 10.5 5.2 2.8 59 3.4 SW 20 30 11 16 1014.6 1014.8 0.0
19/10:00am 10.4 5.9 4.3 66 2.7 WSW 17 24 9 13 1014.3 1014.4 0.0
19/09:30am 8.8 4.6 4.0 72 2.1 SW 15 22 8 12 1014.3 1014.4 0.0
19/09:00am 7.8 4.1 4.6 80 1.4 W 13 20 7 11 1014.1 1014.2 1.6
19/08:30am 6.6 2.5 4.6 87 0.9 W 15 20 8 11 1014.0 1014.1 1.6
19/08:00am 5.9 2.2 4.5 91 0.6 W 13 19 7 10 1013.4 1013.5 1.6
19/07:30am 4.9 1.6 4.3 96 0.3 W 11 15 6 8 1012.9 1013.0 1.6
19/07:00am 3.6 1.0 3.2 97 0.2 WSW 6 11 3 6 1012.7 1012.8 1.6
19/06:30am 3.2 0.3 2.8 97 0.2 WSW 7 9 4 5 1012.3 1012.4 1.6
19/06:00am 3.6 0.0 3.0 96 0.2 WNW 11 13 6 7 1011.9 1012.0 1.6
19/05:30am 3.5 0.7 2.9 96 0.2 W 7 11 4 6 1011.5 1011.7 1.6
19/05:00am 4.1 1.6 3.5 96 0.3 WNW 6 9 3 5 1010.9 1011.1 1.6
19/04:30am 3.9 2.4 3.0 94 0.4 CALM 0 6 0 3 1010.7 1010.9 1.6
19/04:00am 5.0 2.4 4.0 93 0.4 WNW 7 11 4 6 1010.4 1010.5 1.6
19/03:30am 5.5 2.5 4.3 92 0.5 WNW 9 13 5 7 1010.2 1010.3 1.6
19/03:00am 6.1 3.2 4.4 89 0.7 WNW 9 15 5 8 1010.2 1010.3 1.6
19/02:30am 6.4 2.7 4.6 88 0.8 W 13 17 7 9 1010.1 1010.2 1.6
19/02:00am 6.7 3.0 4.5 86 1.0 W 13 20 7 11 1010.5 1010.6 1.6
19/01:30am 7.3 3.2 4.4 82 1.3 W 15 22 8 12 1010.7 1010.9 1.6
19/01:00am 7.6 3.2 4.6 81 1.3 W 17 26 9 14 1010.5 1010.6 1.6
19/12:30am 7.9 4.3 4.8 81 1.4 W 13 19 7 10 1010.4 1010.5 1.6
19/12:00am 7.8 4.6 5.1 83 1.2 WSW 11 17 6 9 1010.4 1010.5 1.6
 
Date/Time
EST
Temp
°C
App
Temp
°C
Dew
Point
°C
Rel
Hum
%
Delta-T
°C
Wind Press
QNH
hPa
Press
MSL
hPa
Rain since
9am
mm
Dir  Spd
km/h
Gust
km/h
Spd
kts
Gust
kts
18/11:30pm 8.5 5.9 6.0 84 1.2 WNW 9 11 5 6 1011.3 1011.5 1.6
18/11:00pm 9.4 6.8 6.1 80 1.5 NW 9 15 5 8 1011.7 1011.9 1.6
18/10:30pm 10.2 6.0 5.6 73 2.1 WNW 17 24 9 13 1012.2 1012.3 1.4
18/10:00pm 10.3 6.6 6.3 76 1.9 W 15 20 8 11 1011.9 1012.0 1.4
18/09:30pm 10.2 6.6 6.7 79 1.7 WNW 15 20 8 11 1011.5 1011.7 1.4
18/09:00pm 9.9 6.6 6.4 79 1.6 WNW 13 22 7 12 1011.1 1011.3 1.4
18/08:30pm 10.1 6.4 6.1 76 1.9 WNW 15 24 8 13 1011.1 1011.3 1.4
18/08:00pm 10.4 6.6 5.6 72 2.2 NW 15 22 8 12 1010.8 1011.0 1.4
18/07:30pm 10.5 6.3 5.7 72 2.2 NW 17 24 9 13 1010.3 1010.4 1.4
18/07:00pm 10.4 7.1 6.2 75 2.0 NNW 13 20 7 11 1010.2 1010.3 1.4
18/06:30pm 11.0 7.0 6.7 75 2.1 NNW 17 26 9 14 1010.2 1010.3 1.4
18/06:00pm 11.0 6.1 6.7 75 2.1 NW 22 35 12 19 1010.4 1010.5 1.2
18/05:30pm 11.5 7.8 8.0 79 1.7 WNW 17 26 9 14 1010.3 1010.4 0.4
18/05:00pm 12.6 8.2 7.5 71 2.5 WSW 20 28 11 15 1009.7 1009.8 0.0
18/04:30pm 13.8 8.4 6.4 61 3.6 WSW 24 33 13 18 1009.8 1009.9 0.0
18/04:00pm 16.0 9.6 3.4 43 5.8 W 26 37 14 20 1009.7 1009.8 0.0
18/03:30pm 17.7 11.6 -2.0 26 8.3 NW 20 33 11 18 1008.7 1008.8 0.0
18/03:00pm 17.2 9.6 -1.9 27 8.0 NW 28 43 15 23 1009.2 1009.3 0.0
18/02:30pm 17.6 11.4 -3.2 24 8.5 WNW 20 35 11 19 1009.3 1009.4 0.0
18/02:00pm 17.3 10.6 -4.0 23 8.6 NW 22 32 12 17 1009.4 1009.5 0.0
18/01:30pm 16.9 9.8 -4.3 23 8.4 NW 24 37 13 20 1009.8 1009.9 0.0
18/01:00pm 17.5 11.1 -5.0 21 8.9 NW 20 35 11 19 1010.0 1010.1 0.0
18/12:39pm 18.1 10.2 -5.2 20 9.2 NW 28 46 15 25 1010.0 1010.1 0.0
18/12:30pm 18.1 10.2 -4.5 21 9.0 NNW 28 39 15 21 1010.4 1010.5 0.0
18/12:00pm 17.7 10.2 -4.9 21 8.9 NW 26 35 14 19 1010.5 1010.6 0.0
18/11:30am 17.6 9.7 -5.0 21 8.9 NNW 28 37 15 20 1010.6 1010.8 0.0
18/11:00am 17.1 10.1 -3.6 24 8.4 NNW 24 39 13 21 1011.1 1011.3 0.0
18/10:30am 17.4 10.8 -3.4 24 8.5 NNW 22 32 12 17 1011.7 1011.9 0.0
18/10:00am 16.2 10.2 -2.8 27 7.7 N 19 28 10 15 1012.1 1012.2 0.0
18/09:30am 14.7 8.7 -1.4 33 6.7 N 20 30 11 16 1012.3 1012.4 0.0
18/09:00am 12.4 8.0 0.2 43 5.1 NNE 13 19 7 10 1013.0 1013.1 0.0
18/08:30am 10.0 6.2 -1.1 46 4.4 NNE 9 13 5 7 1013.5 1013.6 0.0
18/08:00am 8.5 4.6 -1.3 50 3.8 ENE 9 13 5 7 1013.5 1013.6 0.0
18/07:30am 6.6 3.1 -1.3 57 3.0 E 7 11 4 6 1013.7 1013.8 0.0
18/07:00am 2.3 -1.5 -0.8 80 1.1 SSE 9 13 5 7 1013.7 1013.8 0.0
18/06:30am 1.5 -3.2 -1.9 78 1.2 SSE 13 15 7 8 1013.5 1013.6 0.0
18/06:00am 1.2 -2.8 -1.9 80 1.1 ESE 9 9 5 5 1013.2 1013.3 0.0
18/05:30am 0.9 -3.0 -1.8 82 1.0 ESE 9 11 5 6 1013.4 1013.5 0.0
18/05:00am 0.7 -2.8 -2.7 78 1.2 ESE 6 7 3 4 1013.3 1013.4 0.0
18/04:30am 3.8 0.4 -2.4 64 2.2 E 6 7 3 4 1013.2 1013.3 0.0
18/04:00am 2.8 -0.7 -1.5 73 1.6 E 7 9 4 5 1013.5 1013.6 0.0
18/03:30am 3.6 0.9 -2.1 66 2.0 ENE 2 6 1 3 1013.7 1013.8 0.0
18/03:00am 6.4 2.9 -2.7 52 3.3 NE 6 9 3 5 1013.9 1014.0 0.0
18/02:30am 6.9 3.2 -2.5 51 3.5 NNE 7 9 4 5 1014.2 1014.3 0.0
18/02:00am 6.6 2.2 -2.3 53 3.3 NE 11 13 6 7 1014.5 1014.6 0.0
18/01:30am 7.8 3.8 -2.2 49 3.8 NE 9 11 5 6 1015.0 1015.2 0.0
18/01:00am 7.1 3.2 -1.8 53 3.4 NNE 9 13 5 7 1015.1 1015.3 0.0
18/12:30am 8.2 3.9 -1.9 49 3.9 N 11 13 6 7 1015.1 1015.3 0.0
18/12:00am 8.6 5.1 -1.2 50 3.8 NNE 7 9 4 5 1015.1 1015.3 0.0
 
Date/Time
EST
Temp
°C
App
Temp
°C
Dew
Point
°C
Rel
Hum
%
Delta-T
°C
Wind Press
QNH
hPa
Press
MSL
hPa
Rain since
9am
mm
Dir  Spd
km/h
Gust
km/h
Spd
kts
Gust
kts
17/11:30pm 8.7 4.9 -0.9 51 3.8 NNE 9 11 5 6 1015.3 1015.5 0.0
17/11:00pm 9.3 5.9 -0.6 50 3.9 NNE 7 11 4 6 1015.5 1015.7 0.0
17/10:30pm 9.5 5.4 -0.4 50 4.0 NNE 11 13 6 7 1015.8 1016.0 0.0
17/10:00pm 10.7 6.2 -0.4 46 4.5 NNE 13 17 7 9 1015.9 1016.1 0.0
17/09:30pm 10.3 5.8 -0.2 48 4.3 NE 13 20 7 11 1016.1 1016.3 0.0
17/09:00pm 10.7 6.3 0.2 48 4.3 NNE 13 17 7 9 1016.3 1016.5 0.0
17/08:30pm 10.1 6.4 -0.1 49 4.1 NNE 9 13 5 7 1016.4 1016.6 0.0
17/08:00pm 10.5 6.8 0.0 48 4.3 NNE 9 11 5 6 1016.6 1016.8 0.0
17/07:30pm 11.1 7.3 -0.4 45 4.7 NNE 9 11 5 6 1016.6 1016.8 0.0
17/07:00pm 11.1 7.4 -0.1 46 4.6 NNE 9 11 5 6 1016.7 1016.9 0.0
17/06:30pm 12.2 8.9 0.0 43 5.1 NNE 7 11 4 6 1017.0 1017.1 0.0
17/06:00pm 13.8 9.7 0.1 39 5.8 N 11 17 6 9 1017.0 1017.1 0.0
17/05:30pm 15.1 9.4 -0.6 34 6.6 N 19 28 10 15 1017.0 1017.1 0.0
17/05:00pm 15.8 10.0 -0.4 33 6.9 N 20 33 11 18 1017.0 1017.1 0.0
17/04:30pm 16.3 10.4 -0.8 31 7.3 NNW 20 30 11 16 1016.7 1016.9 0.0
17/04:00pm 16.9 11.4 0.5 33 7.2 NNW 19 26 10 14 1017.0 1017.1 0.0
17/03:30pm 15.9 8.9 -0.3 33 6.9 N 26 35 14 19 1017.4 1017.5 0.0
17/03:00pm 15.6 8.6 -0.6 33 6.9 N 26 35 14 19 1017.8 1017.9 0.0
17/02:30pm 16.5 10.0 0.6 34 7.0 NNW 24 35 13 19 1018.2 1018.3 0.0
17/02:08pm 16.3 9.5 0.8 35 6.8 N 26 48 14 26 1018.4 1018.5 0.0
17/02:05pm 16.5 10.0 0.6 34 7.0 NNW 24 48 13 26 1018.4 1018.5 0.0
17/02:00pm 16.3 10.9 1.2 36 6.7 NNW 19 30 10 16 1018.6 1018.7 0.0
17/01:30pm 16.3 10.7 1.2 36 6.7 NNW 20 33 11 18 1019.1 1019.3 0.0
17/01:00pm 15.5 9.1 0.9 37 6.4 NNW 24 37 13 20 1019.6 1019.8 0.0
17/12:30pm 15.4 9.0 1.2 38 6.2 N 24 37 13 20 1020.2 1020.4 0.0
17/12:00pm 14.7 8.3 0.9 39 6.0 NNW 24 33 13 18 1020.8 1021.0 0.0
17/11:30am 14.3 8.2 0.2 38 6.0 N 22 33 12 18 1021.2 1021.4 0.0
17/11:00am 14.5 8.8 2.7 45 5.3 N 22 32 12 17 1021.6 1021.8 0.0
17/10:30am 13.5 8.0 1.8 45 5.1 NNW 20 32 11 17 1022.0 1022.1 0.0
17/10:00am 12.5 7.1 1.2 46 4.8 N 19 28 10 15 1022.3 1022.4 0.0
17/09:30am 11.1 6.6 2.4 55 3.8 NNW 15 19 8 10 1022.7 1022.9 0.0
17/09:00am 10.1 6.9 2.9 61 3.1 NNW 9 15 5 8 1022.9 1023.1 0.0
17/08:30am 8.2 5.4 2.0 65 2.6 NE 6 7 3 4 1022.9 1023.1 0.0
17/08:00am 6.4 3.5 1.7 72 1.9 NE 6 7 3 4 1022.8 1023.0 0.0
17/07:30am 5.1 2.4 2.5 83 1.1 E 6 9 3 5 1022.8 1023.0 0.0
17/07:00am 3.1 0.3 1.9 92 0.5 SE 6 9 3 5 1022.6 1022.7 0.0
17/06:30am 3.0 1.0 2.1 94 0.4 SSE 2 7 1 4 1022.5 1022.6 0.0
17/06:00am 2.6 0.9 1.9 95 0.3 CALM 0 0 0 0 1022.5 1022.6 0.0
17/05:30am 1.9 0.1 1.3 96 0.2 CALM 0 0 0 0 1022.3 1022.4 0.0
17/05:00am 1.3 -1.7 0.7 96 0.2 SSE 6 7 3 4 1022.1 1022.2 0.0
17/04:30am 0.3 -2.1 -0.4 95 0.3 SSE 2 6 1 3 1022.0 1022.1 0.0
17/04:00am 0.3 -2.9 -0.4 95 0.3 SSE 6 7 3 4 1021.9 1022.0 0.0
17/03:30am 0.2 -2.7 -0.8 93 0.4 SSE 4 7 2 4 1021.7 1021.9 0.0
17/03:00am 1.2 -1.5 0.0 92 0.4 SSE 4 7 2 4 1021.7 1021.9 0.0
17/02:30am 1.8 -0.4 0.8 93 0.4 SSW 2 9 1 5 1022.0 1022.1 0.0
17/02:00am 2.1 -0.1 1.2 94 0.3 SSE 2 9 1 5 1022.1 1022.2 0.0
17/01:30am 1.2 -0.7 0.3 94 0.3 CALM 0 0 0 0 1022.7 1022.9 0.0
17/01:00am 1.1 -0.9 0.1 93 0.4 CALM 0 0 0 0 1022.8 1023.0 0.0
17/12:30am 1.6 -0.3 0.4 92 0.4 CALM 0 0 0 0 1022.7 1022.9 0.0
17/12:00am 2.3 0.5 1.0 91 0.5 CALM 0 0 0 0 1022.7 1022.9 0.0
 
Date/Time
EST
Temp
°C
App
Temp
°C
Dew
Point
°C
Rel
Hum
%
Delta-T
°C
Wind Press
QNH
hPa
Press
MSL
hPa
Rain since
9am
mm
Dir  Spd
km/h
Gust
km/h
Spd
kts
Gust
kts
16/11:30pm 2.1 0.2 0.6 90 0.6 CALM 0 0 0 0 1022.8 1023.0 0.0
16/11:00pm 2.0 0.1 0.7 91 0.5 CALM 0 0 0 0 1023.1 1023.3 0.0
16/10:30pm 2.2 0.3 0.6 89 0.6 CALM 0 0 0 0 1023.3 1023.5 0.0
16/10:00pm 2.1 0.1 0.2 87 0.7 CALM 0 0 0 0 1023.3 1023.5 0.0
16/09:30pm 3.1 1.2 0.8 85 0.9 CALM 0 0 0 0 1023.4 1023.6 0.0
16/09:00pm 3.2 1.3 0.6 83 1.0 CALM 0 0 0 0 1023.3 1023.5 0.0
16/08:30pm 3.5 1.6 0.4 80 1.2 CALM 0 0 0 0 1023.1 1023.3 0.0
16/08:00pm 5.1 3.3 0.9 74 1.6 CALM 0 0 0 0 1023.0 1023.2 0.0

Other Formats:

Comma delimited format used in spreadsheet applications
http://www.bom.gov.au/fwo/IDV60801/IDV60801.94855.axf

JavaScript Object Notation format (JSON) in row-major order
http://www.bom.gov.au/fwo/IDV60801/IDV60801.94855.json